createdAt,value
2022-11-07T00:01:46.632Z,100676.66
2022-11-07T00:04:13.789Z,100683.06
2022-11-07T00:06:41.074Z,100685.81
2022-11-07T00:09:07.799Z,100686.31
2022-11-07T00:11:34.473Z,100678.72
2022-11-07T00:14:01.095Z,100685.03
2022-11-07T00:16:28.901Z,100687.97
2022-11-07T00:18:55.795Z,100687.53
2022-11-07T00:21:22.576Z,100687.66
2022-11-07T00:23:49.282Z,100697.34
2022-11-07T00:26:15.852Z,100690.50
2022-11-07T00:28:44.194Z,100693.06
2022-11-07T00:31:12.984Z,100697.84
2022-11-07T00:33:39.963Z,100695.41
2022-11-07T00:36:07.351Z,100700.34
2022-11-07T00:38:34.026Z,100706.69
2022-11-07T00:41:03.835Z,100697.84
2022-11-07T00:43:30.892Z,100699.97
2022-11-07T00:46:00.186Z,100700.34
2022-11-07T00:48:26.888Z,100703.69
2022-11-07T00:50:53.419Z,100696.56
2022-11-07T00:53:20.029Z,100699.72
2022-11-07T00:55:47.572Z,100694.91
2022-11-07T00:58:14.688Z,100702.47
2022-11-07T01:00:42.058Z,100691.09
2022-11-07T01:03:27.757Z,100690.59
2022-11-07T01:06:03.755Z,100683.88
2022-11-07T01:08:31.173Z,100680.00
2022-11-07T01:10:58.725Z,100680.38
2022-11-07T01:13:25.864Z,100681.34
2022-11-07T01:15:52.743Z,100683.81
2022-11-07T01:18:19.288Z,100678.31
2022-11-07T01:20:45.895Z,100675.22
2022-11-07T01:23:12.713Z,100669.56
2022-11-07T01:25:40.245Z,100677.84
2022-11-07T01:28:07.853Z,100681.25
2022-11-07T01:30:38.768Z,100677.87
2022-11-07T01:33:05.623Z,100671.06
2022-11-07T01:35:34.014Z,100669.41
2022-11-07T01:38:00.683Z,100677.78
2022-11-07T01:40:28.304Z,100681.63
2022-11-07T01:42:54.887Z,100683.03
2022-11-07T01:45:33.847Z,100688.25
2022-11-07T01:48:02.461Z,100690.75
2022-11-07T01:50:29.606Z,100693.94
2022-11-07T01:52:56.811Z,100693.44
2022-11-07T01:55:29.780Z,100699.56
2022-11-07T01:58:01.424Z,100697.84
2022-11-07T02:00:29.067Z,100697.72
2022-11-07T02:03:09.657Z,100690.75
2022-11-07T02:05:49.148Z,100694.50
2022-11-07T02:08:16.344Z,100694.37
2022-11-07T02:10:44.236Z,100697.50
2022-11-07T02:13:15.095Z,100698.28
2022-11-07T02:15:41.994Z,100688.94
2022-11-07T02:18:08.568Z,100692.66
2022-11-07T02:20:35.230Z,100700.31
2022-11-07T02:23:08.571Z,100699.13
2022-11-07T02:25:35.285Z,100703.72
2022-11-07T02:28:05.276Z,100699.28
2022-11-07T02:30:34.716Z,100699.22
2022-11-07T02:33:02.424Z,100694.72
2022-11-07T02:35:35.008Z,100696.97
2022-11-07T02:38:05.815Z,100698.34
2022-11-07T02:40:33.551Z,100696.09
2022-11-07T02:43:00.604Z,100690.66
2022-11-07T02:45:31.098Z,100693.50
2022-11-07T02:47:57.531Z,100690.31
2022-11-07T02:50:24.586Z,100698.03
2022-11-07T02:52:51.109Z,100696.12
2022-11-07T02:55:17.939Z,100697.41
2022-11-07T02:57:45.059Z,100691.59
2022-11-07T03:00:14.400Z,100692.22
2022-11-07T03:02:47.330Z,100690.91
2022-11-07T03:05:18.646Z,100692.66
2022-11-07T03:07:47.013Z,100689.28
2022-11-07T03:10:15.486Z,100693.22
2022-11-07T03:12:42.522Z,100694.47
2022-11-07T03:15:10.842Z,100695.63
2022-11-07T03:17:37.604Z,100695.88
2022-11-07T03:20:05.020Z,100688.84
2022-11-07T03:22:31.572Z,100690.81
2022-11-07T03:24:58.120Z,100696.53
2022-11-07T03:27:24.740Z,100683.19
2022-11-07T03:29:51.299Z,100685.69
2022-11-07T03:32:17.903Z,100693.66
2022-11-07T03:34:44.495Z,100689.66
2022-11-07T03:37:11.180Z,100688.03
2022-11-07T03:39:37.728Z,100691.25
2022-11-07T03:42:04.396Z,100696.78
2022-11-07T03:44:31.006Z,100691.94
2022-11-07T03:46:57.531Z,100689.66
2022-11-07T03:49:24.089Z,100705.56
2022-11-07T03:51:50.660Z,100701.25
2022-11-07T03:54:17.219Z,100704.13
2022-11-07T03:56:43.755Z,100712.16
2022-11-07T03:59:10.281Z,100708.31
2022-11-07T04:01:36.920Z,100706.78
2022-11-07T04:04:03.583Z,100708.31
2022-11-07T04:06:30.136Z,100711.91
2022-11-07T04:08:56.688Z,100714.84
2022-11-07T04:11:41.524Z,100715.56
2022-11-07T04:14:26.864Z,100716.72
2022-11-07T04:17:11.707Z,100720.84
2022-11-07T04:19:38.230Z,100716.38
2022-11-07T04:22:04.768Z,100713.78
2022-11-07T04:24:31.958Z,100722.81
2022-11-07T04:27:17.339Z,100727.16
2022-11-07T04:29:43.905Z,100736.47
2022-11-07T04:32:10.482Z,100730.56
2022-11-07T04:34:37.172Z,100722.28
2022-11-07T04:37:03.745Z,100721.03
2022-11-07T04:39:30.315Z,100721.47
2022-11-07T04:41:57.158Z,100715.84
2022-11-07T04:44:23.719Z,100714.94
2022-11-07T04:46:50.269Z,100704.03
2022-11-07T04:49:16.838Z,100704.91
2022-11-07T04:51:44.342Z,100713.28
2022-11-07T04:54:13.452Z,100699.97
2022-11-07T04:56:40.891Z,100689.16
2022-11-07T04:59:07.853Z,100699.50
2022-11-07T05:01:34.799Z,100703.47
2022-11-07T05:04:01.425Z,100695.66
2022-11-07T05:06:28.031Z,100703.81
2022-11-07T05:08:54.601Z,100697.91
2022-11-07T05:11:21.169Z,100696.19
2022-11-07T05:13:47.705Z,100701.28
2022-11-07T05:16:17.242Z,100699.22
2022-11-07T05:18:44.147Z,100704.59
2022-11-07T05:21:11.089Z,100716.22
2022-11-07T05:23:37.686Z,100717.00
2022-11-07T05:26:04.305Z,100712.84
2022-11-07T05:28:38.608Z,100726.56
2022-11-07T05:31:07.742Z,100728.13
2022-11-07T05:33:35.484Z,100731.34
2022-11-07T05:36:12.807Z,100740.97
2022-11-07T05:38:44.487Z,100736.91
2022-11-07T05:41:12.552Z,100741.97
2022-11-07T05:43:39.432Z,100744.16
2022-11-07T05:46:06.855Z,100749.09
2022-11-07T05:48:37.179Z,100747.28
2022-11-07T05:51:05.261Z,100748.34
2022-11-07T05:53:32.347Z,100750.06
2022-11-07T05:55:58.978Z,100753.31
2022-11-07T05:58:25.679Z,100747.44
2022-11-07T06:00:52.369Z,100749.00
2022-11-07T06:03:20.501Z,100745.09
2022-11-07T06:05:47.944Z,100749.31
2022-11-07T06:08:17.566Z,100765.47
2022-11-07T06:10:44.182Z,100769.72
2022-11-07T06:13:13.754Z,100768.16
2022-11-07T06:15:44.367Z,100778.53
2022-11-07T06:18:17.948Z,100783.88
2022-11-07T06:20:44.968Z,100786.97
2022-11-07T06:23:12.091Z,100781.00
2022-11-07T06:25:39.110Z,100790.47
2022-11-07T06:28:08.598Z,100799.16
2022-11-07T06:30:36.452Z,100800.25
2022-11-07T06:33:05.218Z,100790.94
2022-11-07T06:35:32.320Z,100796.13
2022-11-07T06:38:03.504Z,100796.69
2022-11-07T06:40:30.652Z,100805.91
2022-11-07T06:43:09.286Z,100814.31
2022-11-07T06:45:36.228Z,100821.28
2022-11-07T06:48:03.045Z,100837.13
2022-11-07T06:50:29.736Z,100838.81
2022-11-07T06:52:56.333Z,100835.25
2022-11-07T06:55:22.966Z,100827.31
2022-11-07T06:57:49.768Z,100832.31
2022-11-07T07:00:16.828Z,100838.03
2022-11-07T07:02:57.838Z,100846.78
2022-11-07T07:05:25.674Z,100848.84
2022-11-07T07:07:53.615Z,100851.88
2022-11-07T07:10:20.223Z,100851.38
2022-11-07T07:12:46.888Z,100848.38
2022-11-07T07:15:13.456Z,100850.91
2022-11-07T07:17:40.019Z,100854.28
2022-11-07T07:20:07.174Z,100854.41
2022-11-07T07:22:33.838Z,100846.44
2022-11-07T07:25:00.468Z,100858.09
2022-11-07T07:27:27.104Z,100848.56
2022-11-07T07:29:53.720Z,100846.87
2022-11-07T07:32:21.080Z,100849.75
2022-11-07T07:34:48.170Z,100851.25
2022-11-07T07:37:14.840Z,100849.69
2022-11-07T07:40:09.308Z,100852.28
2022-11-07T07:43:35.595Z,100860.37
2022-11-07T07:48:58.868Z,100861.03
2022-11-07T07:51:53.351Z,100855.78
2022-11-07T07:54:52.403Z,100854.81
2022-11-07T07:57:48.436Z,100846.28
2022-11-07T08:00:16.126Z,100845.91
2022-11-07T08:06:25.149Z,100848.91
2022-11-07T08:09:51.663Z,100850.06
2022-11-07T08:24:01.489Z,100859.53
2022-11-07T08:27:00.508Z,100851.41
2022-11-07T08:54:11.943Z,100859.16
2022-11-07T09:02:14.452Z,100874.44
2022-11-07T09:04:02.671Z,100868.25
2022-11-07T09:06:29.558Z,100873.22
2022-11-07T09:08:56.146Z,100881.31
2022-11-07T09:11:22.825Z,100872.72
2022-11-07T09:13:49.422Z,100875.62
2022-11-07T09:16:19.691Z,100871.59
2022-11-07T09:18:47.848Z,100880.38
2022-11-07T09:21:20.673Z,100883.66
2022-11-07T09:23:48.882Z,100882.44
2022-11-07T09:26:15.504Z,100878.25
2022-11-07T09:28:45.754Z,100882.06
2022-11-07T09:31:17.025Z,100888.56
2022-11-07T09:33:43.597Z,100898.19
2022-11-07T09:36:11.363Z,100884.81
2022-11-07T09:38:37.993Z,100883.31
2022-11-07T09:41:31.458Z,100887.50
2022-11-07T09:44:12.708Z,100882.28
2022-11-07T09:47:14.557Z,100881.19
2022-11-07T09:49:46.177Z,100880.16
2022-11-07T09:52:31.623Z,100884.22
2022-11-07T09:55:41.427Z,100877.56
2022-11-07T09:58:29.538Z,100881.44
2022-11-07T10:01:01.124Z,100878.94
2022-11-07T10:03:28.052Z,100880.31
2022-11-07T10:06:00.419Z,100885.78
2022-11-07T10:08:45.938Z,100877.59
2022-11-07T10:11:37.373Z,100878.19
2022-11-07T10:14:28.533Z,100874.41
2022-11-07T10:17:04.836Z,100858.94
2022-11-07T10:20:03.215Z,100864.75
2022-11-07T10:22:48.413Z,100864.53
2022-11-07T10:25:35.476Z,100859.09
2022-11-07T10:28:07.815Z,100862.94
2022-11-07T10:30:35.771Z,100852.28
2022-11-07T10:33:23.705Z,100855.91
2022-11-07T10:36:13.198Z,100854.09
2022-11-07T10:38:42.430Z,100841.66
2022-11-07T10:41:36.049Z,100854.72
2022-11-07T10:44:13.737Z,100850.87
2022-11-07T10:46:48.944Z,100847.06
2022-11-07T10:49:19.963Z,100843.66
2022-11-07T10:51:47.071Z,100831.84
2022-11-07T10:54:25.735Z,100839.63
2022-11-07T10:57:11.971Z,100838.84
2022-11-07T10:59:46.724Z,100844.97
2022-11-07T11:02:22.612Z,100835.59
2022-11-07T11:04:52.238Z,100836.50
2022-11-07T11:07:21.871Z,100826.97
2022-11-07T11:09:58.130Z,100827.16
2022-11-07T11:12:34.479Z,100825.62
2022-11-07T11:15:10.531Z,100819.75
2022-11-07T11:17:37.232Z,100817.41
2022-11-07T11:20:04.342Z,100820.91
2022-11-07T11:22:31.142Z,100817.19
2022-11-07T11:25:17.040Z,100809.19
2022-11-07T11:27:46.668Z,100814.53
2022-11-07T11:30:19.559Z,100815.78
2022-11-07T11:32:50.663Z,100809.56
2022-11-07T11:35:43.729Z,100806.00
2022-11-07T11:38:28.644Z,100807.25
2022-11-07T11:41:25.215Z,100808.97
2022-11-07T11:43:58.975Z,100802.03
2022-11-07T11:46:51.825Z,100801.25
2022-11-07T11:49:24.108Z,100796.66
2022-11-07T11:52:03.315Z,100805.88
2022-11-07T11:54:29.987Z,100810.69
2022-11-07T11:57:07.206Z,100810.69
2022-11-07T11:59:57.100Z,100801.38
2022-11-07T12:02:42.011Z,100806.37
2022-11-07T12:05:35.762Z,100804.59
2022-11-07T12:08:23.694Z,100797.31
2022-11-07T12:11:00.800Z,100795.63
2022-11-07T12:13:47.588Z,100793.44
2022-11-07T12:16:31.361Z,100791.94
2022-11-07T12:19:34.981Z,100788.91
2022-11-07T12:22:28.384Z,100791.34
2022-11-07T12:25:15.260Z,100788.53
2022-11-07T12:27:55.758Z,100794.97
2022-11-07T12:30:31.859Z,100793.63
2022-11-07T12:33:20.179Z,100792.00
2022-11-07T12:36:10.978Z,100802.66
2022-11-07T12:39:09.261Z,100796.28
2022-11-07T12:41:58.578Z,100794.09
2022-11-07T12:44:49.406Z,100793.91
2022-11-07T12:47:34.904Z,100796.53
2022-11-07T12:50:43.057Z,100794.09
2022-11-07T12:53:46.114Z,100792.28
2022-11-07T12:56:21.966Z,100797.91
2022-11-07T12:58:48.817Z,100788.56
2022-11-07T13:01:22.423Z,100798.19
2022-11-07T13:04:10.191Z,100796.44
2022-11-07T13:06:59.053Z,100795.06
2022-11-07T13:09:39.718Z,100799.53
2022-11-07T13:12:26.542Z,100796.28
2022-11-07T13:14:53.776Z,100797.88
2022-11-07T13:17:27.034Z,100788.41
2022-11-07T13:20:04.347Z,100794.62
2022-11-07T13:22:39.711Z,100788.88
2022-11-07T13:25:13.450Z,100790.22
2022-11-07T13:27:45.261Z,100786.84
2022-11-07T13:30:15.233Z,100797.75
2022-11-07T13:32:43.907Z,100799.31
2022-11-07T13:35:23.994Z,100798.56
2022-11-07T13:37:53.863Z,100795.16
2022-11-07T13:40:26.989Z,100790.97
2022-11-07T13:43:00.309Z,100792.28
2022-11-07T13:45:33.495Z,100788.12
2022-11-07T13:48:04.184Z,100786.97
2022-11-07T13:50:42.336Z,100784.53
2022-11-07T13:53:41.211Z,100785.75
2022-11-07T13:56:33.978Z,100791.97
2022-11-07T13:59:03.207Z,100784.69
2022-11-07T14:01:42.471Z,100793.06
2022-11-07T14:04:17.587Z,100789.13
2022-11-07T14:06:45.048Z,100777.34
2022-11-07T14:09:15.642Z,100789.22
2022-11-07T14:11:42.445Z,100777.03
2022-11-07T14:14:09.374Z,100781.03
2022-11-07T14:16:37.919Z,100792.69
2022-11-07T14:19:07.197Z,100787.06
2022-11-07T14:21:36.941Z,100783.25
2022-11-07T14:24:23.148Z,100785.47
2022-11-07T14:27:01.822Z,100784.28
2022-11-07T14:29:28.871Z,100777.84
2022-11-07T14:32:01.393Z,100778.25
2022-11-07T14:34:28.561Z,100778.88
2022-11-07T14:37:00.784Z,100786.50
2022-11-07T14:39:32.367Z,100784.88
2022-11-07T14:42:02.562Z,100784.88
2022-11-07T14:44:55.870Z,100793.63
2022-11-07T14:47:34.830Z,100782.19
2022-11-07T14:50:03.261Z,100792.13
2022-11-07T14:52:36.401Z,100794.88
2022-11-07T14:55:05.467Z,100796.31
2022-11-07T14:57:35.377Z,100801.97
2022-11-07T15:00:08.813Z,100806.19
2022-11-07T15:02:35.892Z,100804.59
2022-11-07T15:05:10.764Z,100801.94
2022-11-07T15:07:47.766Z,100801.91
2022-11-07T15:10:24.758Z,100803.22
2022-11-07T15:12:54.720Z,100809.75
2022-11-07T15:15:24.088Z,100809.38
2022-11-07T15:17:53.416Z,100804.25
2022-11-07T15:20:22.342Z,100810.59
2022-11-07T15:22:49.012Z,100812.87
2022-11-07T15:25:36.030Z,100811.31
2022-11-07T15:28:45.035Z,100816.34
2022-11-07T15:31:27.840Z,100817.38
2022-11-07T15:33:56.775Z,100803.03
2022-11-07T15:36:24.562Z,100809.44
2022-11-07T15:38:52.466Z,100808.03
2022-11-07T15:41:19.666Z,100813.88
2022-11-07T15:43:46.196Z,100815.22
2022-11-07T15:46:31.323Z,100807.41
2022-11-07T15:48:58.069Z,100810.31
2022-11-07T15:51:24.727Z,100806.72
2022-11-07T15:53:51.382Z,100813.97
2022-11-07T15:56:23.206Z,100817.44
2022-11-07T15:58:50.512Z,100817.78
2022-11-07T16:01:17.432Z,100823.78
2022-11-07T16:03:44.093Z,100829.91
2022-11-07T16:06:26.337Z,100826.38
2022-11-07T16:08:53.347Z,100819.28
2022-11-07T16:11:20.128Z,100826.84
2022-11-07T16:13:47.537Z,100830.75
2022-11-07T16:16:23.902Z,100833.50
2022-11-07T16:18:53.650Z,100834.28
2022-11-07T16:21:21.009Z,100851.56
2022-11-07T16:23:50.425Z,100843.50
2022-11-07T16:26:28.838Z,100843.00
2022-11-07T16:28:55.470Z,100842.53
2022-11-07T16:31:22.176Z,100841.56
2022-11-07T16:33:48.741Z,100842.19
2022-11-07T16:36:22.829Z,100845.56
2022-11-07T16:38:49.380Z,100852.00
2022-11-07T16:41:16.441Z,100856.53
2022-11-07T16:43:43.071Z,100858.75
2022-11-07T16:46:18.712Z,100857.00
2022-11-07T16:48:48.740Z,100849.09
2022-11-07T16:51:17.187Z,100854.22
2022-11-07T16:53:44.708Z,100851.47
2022-11-07T16:56:26.694Z,100857.28
2022-11-07T16:58:54.541Z,100850.37
2022-11-07T17:01:23.420Z,100869.38
2022-11-07T17:03:50.335Z,100867.41
2022-11-07T17:06:22.101Z,100876.75
2022-11-07T17:08:49.179Z,100863.22
2022-11-07T17:11:18.079Z,100868.53
2022-11-07T17:13:45.398Z,100866.19
2022-11-07T17:16:14.347Z,100870.94
2022-11-07T17:18:40.912Z,100865.38
2022-11-07T17:21:07.463Z,100864.84
2022-11-07T17:23:34.065Z,100874.78
2022-11-07T17:26:01.386Z,100877.87
2022-11-07T17:28:28.131Z,100878.34
2022-11-07T17:30:54.708Z,100876.31
2022-11-07T17:33:26.839Z,100884.19
2022-11-07T17:35:55.656Z,100876.94
2022-11-07T17:38:22.252Z,100881.16
2022-11-07T17:40:48.844Z,100877.75
2022-11-07T17:43:15.399Z,100881.47
2022-11-07T17:45:44.368Z,100890.78
2022-11-07T17:48:11.330Z,100886.16
2022-11-07T17:50:38.143Z,100893.28
2022-11-07T17:53:08.171Z,100891.47
2022-11-07T17:55:35.221Z,100895.94
2022-11-07T17:58:01.796Z,100889.03
2022-11-07T18:00:28.376Z,100885.88
2022-11-07T18:02:55.121Z,100888.94
2022-11-07T18:05:24.099Z,100890.81
2022-11-07T18:07:53.780Z,100883.38
2022-11-07T18:10:20.346Z,100885.00
2022-11-07T18:12:46.975Z,100894.78
2022-11-07T18:15:18.109Z,100892.81
2022-11-07T18:17:47.286Z,100896.12
2022-11-07T18:20:16.484Z,100894.63
2022-11-07T18:22:46.052Z,100897.44
2022-11-07T18:25:12.751Z,100894.44
2022-11-07T18:27:39.343Z,100890.16
2022-11-07T18:30:09.877Z,100893.66
2022-11-07T18:32:36.805Z,100889.06
2022-11-07T18:35:04.886Z,100889.50
2022-11-07T18:37:31.929Z,100897.50
2022-11-07T18:40:00.491Z,100896.19
2022-11-07T18:42:27.060Z,100902.31
2022-11-07T18:44:53.937Z,100903.19
2022-11-07T18:47:20.527Z,100906.50
2022-11-07T18:49:47.082Z,100902.88
2022-11-07T18:52:13.698Z,100895.16
2022-11-07T18:54:40.731Z,100901.19
2022-11-07T18:57:07.490Z,100903.09
2022-11-07T18:59:34.356Z,100905.81
2022-11-07T19:02:01.227Z,100898.13
2022-11-07T19:04:28.063Z,100903.16
2022-11-07T19:06:57.811Z,100898.63
2022-11-07T19:09:26.989Z,100888.00
2022-11-07T19:11:53.847Z,100896.84
2022-11-07T19:14:20.424Z,100889.72
2022-11-07T19:16:47.378Z,100892.91
2022-11-07T19:19:13.926Z,100886.97
2022-11-07T19:21:43.756Z,100894.84
2022-11-07T19:24:10.761Z,100893.09
2022-11-07T19:26:39.611Z,100891.56
2022-11-07T19:29:09.253Z,100888.84
2022-11-07T19:31:36.634Z,100898.78
2022-11-07T19:34:04.044Z,100900.84
2022-11-07T19:36:31.658Z,100906.47
2022-11-07T19:38:58.376Z,100906.50
2022-11-07T19:41:24.938Z,100912.72
2022-11-07T19:43:51.533Z,100915.78
2022-11-07T19:46:21.249Z,100914.22
2022-11-07T19:48:49.132Z,100910.69
2022-11-07T19:51:23.489Z,100912.47
2022-11-07T19:53:58.878Z,100911.63
2022-11-07T19:56:28.255Z,100920.12
2022-11-07T19:58:55.637Z,100915.41
2022-11-07T20:01:28.265Z,100913.53
2022-11-07T20:03:55.808Z,100919.78
2022-11-07T20:06:25.924Z,100917.25
2022-11-07T20:08:52.902Z,100914.44
2022-11-07T20:11:23.169Z,100905.41
2022-11-07T20:13:50.107Z,100918.81
2022-11-07T20:16:17.266Z,100921.53
2022-11-07T20:18:43.995Z,100919.63
2022-11-07T20:21:16.961Z,100919.97
2022-11-07T20:23:45.289Z,100926.41
2022-11-07T20:26:18.716Z,100922.94
2022-11-07T20:28:49.308Z,100933.38
2022-11-07T20:31:16.891Z,100929.16
2022-11-07T20:33:43.482Z,100929.59
2022-11-07T20:36:13.042Z,100935.16
2022-11-07T20:38:43.907Z,100932.97
2022-11-07T20:41:12.499Z,100927.84
2022-11-07T20:43:39.924Z,100930.03
2022-11-07T20:46:08.949Z,100934.78
2022-11-07T20:48:36.888Z,100927.31
2022-11-07T20:51:27.240Z,100930.97
2022-11-07T20:53:54.737Z,100929.22
2022-11-07T20:56:23.327Z,100924.78
2022-11-07T20:58:50.763Z,100937.22
2022-11-07T21:01:21.455Z,100929.75
2022-11-07T21:03:48.232Z,100925.16
2022-11-07T21:06:14.947Z,100922.75
2022-11-07T21:08:44.007Z,100923.97
2022-11-07T21:11:11.488Z,100924.38
2022-11-07T21:13:38.208Z,100929.22
2022-11-07T21:16:06.423Z,100925.03
2022-11-07T21:18:33.458Z,100916.31
2022-11-07T21:21:06.992Z,100920.78
2022-11-07T21:23:33.946Z,100918.47
2022-11-07T21:26:06.537Z,100927.94
2022-11-07T21:28:40.378Z,100925.25
2022-11-07T21:31:10.704Z,100929.00
2022-11-07T21:33:37.486Z,100924.28
2022-11-07T21:36:08.670Z,100932.28
2022-11-07T21:38:35.303Z,100935.28
2022-11-07T21:41:05.530Z,100935.88
2022-11-07T21:43:32.220Z,100933.59
2022-11-07T21:46:12.587Z,100943.84
2022-11-07T21:48:40.061Z,100942.56
2022-11-07T21:51:18.592Z,100935.72
2022-11-07T21:53:45.810Z,100935.00
2022-11-07T21:56:22.726Z,100936.56
2022-11-07T21:58:54.938Z,100934.25
2022-11-07T22:01:22.325Z,100938.47
2022-11-07T22:04:07.978Z,100932.25
2022-11-07T22:06:38.023Z,100939.31
2022-11-07T22:09:06.591Z,100938.09
2022-11-07T22:11:33.527Z,100944.03
2022-11-07T22:14:00.211Z,100945.25
2022-11-07T22:16:27.003Z,100939.31
2022-11-07T22:18:53.585Z,100948.47
2022-11-07T22:21:22.432Z,100945.94
2022-11-07T22:23:49.638Z,100943.59
2022-11-07T22:26:19.459Z,100944.53
2022-11-07T22:28:46.644Z,100941.94
2022-11-07T22:31:22.887Z,100943.28
2022-11-07T22:33:51.049Z,100945.37
2022-11-07T22:36:18.662Z,100942.59
2022-11-07T22:38:45.472Z,100941.47
2022-11-07T22:41:18.346Z,100943.09
2022-11-07T22:43:45.399Z,100936.09
2022-11-07T22:46:15.101Z,100932.75
2022-11-07T22:48:42.162Z,100929.00
2022-11-07T22:51:11.634Z,100928.75
2022-11-07T22:53:41.117Z,100928.78
2022-11-07T22:56:15.142Z,100933.88
2022-11-07T22:58:42.471Z,100931.66
2022-11-07T23:01:21.356Z,100934.59
2022-11-07T23:03:51.173Z,100936.16
2022-11-07T23:06:19.028Z,100931.09
2022-11-07T23:08:46.141Z,100939.72
2022-11-07T23:11:45.291Z,100942.72
2022-11-07T23:14:07.877Z,100945.44
2022-11-07T23:16:36.898Z,100946.19
2022-11-07T23:19:09.269Z,100940.22
2022-11-07T23:21:36.004Z,100939.56
2022-11-07T23:24:03.160Z,100942.37
2022-11-07T23:26:33.663Z,100947.00
2022-11-07T23:29:11.643Z,100950.03
2022-11-07T23:31:43.883Z,100947.75
2022-11-07T23:34:10.675Z,100944.91
2022-11-07T23:36:37.888Z,100950.31
2022-11-07T23:39:12.808Z,100947.03
2022-11-07T23:41:39.366Z,100946.00
2022-11-07T23:44:05.986Z,100948.44
2022-11-07T23:46:50.907Z,100951.19
2022-11-07T23:49:55.600Z,100947.00
2022-11-07T23:52:22.208Z,100945.81
2022-11-07T23:55:07.294Z,100951.91
2022-11-07T23:57:55.685Z,100943.94
